createdAt,value
2023-11-18T00:01:11.418Z,99132.25
2023-11-18T00:06:03.134Z,99122.09
2023-11-18T00:10:55.216Z,99116.09
2023-11-18T00:15:49.485Z,99106.13
2023-11-18T00:20:41.300Z,99074.63
2023-11-18T00:25:35.169Z,99052.66
2023-11-18T00:30:27.034Z,99059.28
2023-11-18T00:35:18.719Z,99046.03
2023-11-18T00:40:10.859Z,99035.66
2023-11-18T00:45:02.701Z,99029.47
2023-11-18T00:49:55.174Z,99006.03
2023-11-18T00:54:47.996Z,98996.94
2023-11-18T00:59:43.351Z,98971.22
2023-11-18T01:04:35.586Z,98933.53
2023-11-18T01:09:28.297Z,98926.50
2023-11-18T01:14:20.443Z,98944.31
2023-11-18T01:19:12.106Z,98925.88
2023-11-18T01:24:04.300Z,98920.47
2023-11-18T01:28:56.849Z,98911.13
2023-11-18T01:33:51.318Z,98911.56
2023-11-18T01:38:43.343Z,98887.31
2023-11-18T01:43:35.397Z,98861.59
2023-11-18T01:48:28.081Z,98848.75
2023-11-18T01:53:19.764Z,98837.53
2023-11-18T01:58:12.293Z,98820.94
2023-11-18T02:03:05.619Z,98817.19
2023-11-18T02:07:58.535Z,98820.53
2023-11-18T02:13:11.781Z,98816.56
2023-11-18T02:18:07.183Z,98801.84
2023-11-18T02:23:00.298Z,98808.47
2023-11-18T02:27:52.159Z,98785.00
2023-11-18T02:33:00.459Z,98783.75
2023-11-18T02:37:56.038Z,98733.97
2023-11-18T02:42:50.043Z,98740.81
2023-11-18T02:47:41.902Z,98717.56
2023-11-18T02:52:36.428Z,98693.69
2023-11-18T02:57:28.833Z,98674.75
2023-11-18T03:02:22.272Z,98674.72
2023-11-18T03:07:13.960Z,98660.56
2023-11-18T03:12:07.229Z,98637.88
2023-11-18T03:16:59.571Z,98619.16
2023-11-18T03:21:54.662Z,98640.88
2023-11-18T03:26:46.341Z,98584.41
2023-11-18T03:31:38.129Z,98586.66
2023-11-18T03:36:29.822Z,98581.41
2023-11-18T03:41:24.597Z,98599.00
2023-11-18T03:46:16.965Z,98565.97
2023-11-18T03:51:08.706Z,98551.19
2023-11-18T03:56:00.663Z,98541.00
2023-11-18T04:00:52.391Z,98509.22
2023-11-18T04:05:44.124Z,98494.00
2023-11-18T04:10:35.824Z,98518.88
2023-11-18T04:15:28.179Z,98519.22
2023-11-18T04:20:19.897Z,98529.72
2023-11-18T04:25:12.856Z,98522.56
2023-11-18T04:30:05.668Z,98472.69
2023-11-18T04:34:57.419Z,98463.66
2023-11-18T04:39:49.009Z,98446.78
2023-11-18T04:44:40.681Z,98448.78
2023-11-18T04:49:32.371Z,98456.41
2023-11-18T04:54:24.056Z,98448.09
2023-11-18T04:59:15.721Z,98417.69
2023-11-18T05:04:09.536Z,98435.31
2023-11-18T05:09:01.411Z,98424.03
2023-11-18T05:13:53.230Z,98411.69
2023-11-18T05:18:45.038Z,98401.50
2023-11-18T05:23:37.145Z,98387.50
2023-11-18T05:28:28.856Z,98392.44
2023-11-18T05:33:21.463Z,98405.47
2023-11-18T05:38:13.206Z,98375.28
2023-11-18T05:43:07.678Z,98391.84
2023-11-18T05:47:59.654Z,98375.16
2023-11-18T05:52:52.196Z,98360.16
2023-11-18T05:57:46.116Z,98373.19
2023-11-18T06:02:40.811Z,98382.69
2023-11-18T06:07:32.647Z,98355.56
2023-11-18T06:12:24.313Z,98344.59
2023-11-18T06:17:16.167Z,98343.31
2023-11-18T06:22:07.932Z,98330.94
2023-11-18T06:27:00.847Z,98337.28
2023-11-18T06:31:52.681Z,98321.16
2023-11-18T06:36:44.322Z,98315.88
2023-11-18T06:41:36.205Z,98309.13
2023-11-18T06:46:35.774Z,98289.47
2023-11-18T06:51:28.973Z,98298.75
2023-11-18T06:56:20.754Z,98309.66
2023-11-18T07:01:18.471Z,98288.94
2023-11-18T07:06:10.689Z,98288.22
2023-11-18T07:11:02.903Z,98267.13
2023-11-18T07:15:57.786Z,98269.97
2023-11-18T07:20:50.467Z,98248.63
2023-11-18T07:25:44.565Z,98246.00
2023-11-18T07:30:38.177Z,98214.13
2023-11-18T07:35:30.908Z,98235.03
2023-11-18T07:40:29.327Z,98232.91
2023-11-18T07:45:24.689Z,98216.72
2023-11-18T07:50:17.578Z,98210.56
2023-11-18T07:55:12.092Z,98229.63
2023-11-18T08:00:10.148Z,98239.94
2023-11-18T08:05:01.866Z,98243.28
2023-11-18T08:09:53.958Z,98230.09
2023-11-18T08:14:45.589Z,98231.22
2023-11-18T08:19:37.301Z,98223.19
2023-11-18T08:24:30.499Z,98243.59
2023-11-18T08:29:22.673Z,98253.19
2023-11-18T08:34:15.280Z,98237.25
2023-11-18T08:39:08.604Z,98251.19
2023-11-18T08:44:14.229Z,98242.63
2023-11-18T08:49:13.842Z,98248.09
2023-11-18T08:54:23.397Z,98234.63
2023-11-18T08:59:18.122Z,98251.50
2023-11-18T09:04:11.338Z,98222.34
2023-11-18T09:09:07.388Z,98234.09
2023-11-18T09:14:02.024Z,98249.34
2023-11-18T09:18:54.417Z,98257.25
2023-11-18T09:23:49.209Z,98260.56
2023-11-18T09:28:41.580Z,98254.72
2023-11-18T09:33:35.105Z,98261.84
2023-11-18T09:38:30.972Z,98259.16
2023-11-18T09:43:25.392Z,98243.78
2023-11-18T09:48:21.549Z,98241.09
2023-11-18T09:53:13.362Z,98245.50
2023-11-18T09:58:10.155Z,98227.66
2023-11-18T10:03:02.323Z,98222.00
2023-11-18T10:07:54.712Z,98201.16
2023-11-18T10:12:53.762Z,98205.56
2023-11-18T10:18:08.127Z,98204.50
2023-11-18T10:23:14.151Z,98198.31
2023-11-18T10:28:06.030Z,98212.72
2023-11-18T10:33:06.531Z,98208.69
2023-11-18T10:38:00.362Z,98225.06
2023-11-18T10:42:54.054Z,98228.38
2023-11-18T10:47:47.822Z,98236.31
2023-11-18T10:52:42.546Z,98225.25
2023-11-18T10:57:37.017Z,98218.50
2023-11-18T11:02:36.386Z,98204.16
2023-11-18T11:07:31.067Z,98185.69
2023-11-18T11:12:25.941Z,98182.16
2023-11-18T11:17:28.438Z,98197.16
2023-11-18T11:22:25.803Z,98200.97
2023-11-18T11:27:51.135Z,98203.72
2023-11-18T11:32:53.060Z,98211.06
2023-11-18T11:37:45.089Z,98180.38
2023-11-18T11:42:37.116Z,98181.22
2023-11-18T11:47:37.871Z,98172.25
2023-11-18T11:52:39.110Z,98185.59
2023-11-18T11:57:34.559Z,98147.78
2023-11-18T12:02:30.819Z,98152.16
2023-11-18T12:07:24.517Z,98161.69
2023-11-18T12:12:20.805Z,98171.19
2023-11-18T12:17:15.937Z,98142.91
2023-11-18T12:22:14.376Z,98157.63
2023-11-18T12:27:11.988Z,98166.31
2023-11-18T12:32:03.977Z,98161.13
2023-11-18T12:37:32.716Z,98165.25
2023-11-18T12:42:59.668Z,98173.94
2023-11-18T12:47:56.215Z,98162.75
2023-11-18T12:52:49.192Z,98142.91
2023-11-18T12:57:47.595Z,98152.16
2023-11-18T13:02:40.534Z,98123.06
2023-11-18T13:07:32.451Z,98134.78
2023-11-18T13:12:24.853Z,98146.75
2023-11-18T13:17:17.961Z,98133.69
2023-11-18T13:22:14.923Z,98128.25
2023-11-18T13:27:08.121Z,98133.13
2023-11-18T13:32:01.652Z,98113.28
2023-11-18T13:36:53.328Z,98116.56
2023-11-18T13:41:46.182Z,98108.13
2023-11-18T13:46:42.875Z,98105.13
2023-11-18T13:51:36.736Z,98101.03
2023-11-18T13:56:29.743Z,98077.38
2023-11-18T14:01:22.864Z,98075.44
2023-11-18T14:06:18.545Z,98094.50
2023-11-18T14:11:16.392Z,98095.88
2023-11-18T14:16:11.128Z,98096.69
2023-11-18T14:21:03.056Z,98090.97
2023-11-18T14:25:54.818Z,98093.97
2023-11-18T14:30:46.608Z,98102.66
2023-11-18T14:35:38.992Z,98095.59
2023-11-18T14:40:30.616Z,98089.59
2023-11-18T14:45:22.801Z,98088.81
2023-11-18T14:50:25.177Z,98080.06
2023-11-18T14:55:18.599Z,98075.19
2023-11-18T15:00:13.590Z,98068.66
2023-11-18T15:05:10.341Z,98068.66
2023-11-18T15:10:02.174Z,98066.22
2023-11-18T15:14:53.876Z,98073.56
2023-11-18T15:19:45.667Z,98071.94
2023-11-18T15:24:37.405Z,98087.69
2023-11-18T15:29:34.521Z,98074.38
2023-11-18T15:34:26.516Z,98065.13
2023-11-18T15:39:18.301Z,98057.53
2023-11-18T15:44:14.255Z,98073.56
2023-11-18T15:49:05.997Z,98077.66
2023-11-18T15:53:57.778Z,98074.66
2023-11-18T15:58:50.102Z,98084.44
2023-11-18T16:03:42.516Z,98067.84
2023-11-18T16:08:35.891Z,98074.38
2023-11-18T16:13:27.563Z,98075.44
2023-11-18T16:18:19.369Z,98068.41
2023-11-18T16:23:11.550Z,98073.25
2023-11-18T16:28:04.343Z,98063.47
2023-11-18T16:33:00.194Z,98059.94
2023-11-18T16:37:52.492Z,98059.13
2023-11-18T16:42:49.237Z,98054.47
2023-11-18T16:47:41.713Z,98051.19
2023-11-18T16:52:33.455Z,98050.41
2023-11-18T16:57:27.145Z,98048.75
2023-11-18T17:02:23.424Z,98055.25
2023-11-18T17:07:15.261Z,98059.88
2023-11-18T17:12:07.613Z,98058.50
2023-11-18T17:16:59.517Z,98051.47
2023-11-18T17:21:52.888Z,98061.50
2023-11-18T17:26:45.248Z,98070.19
2023-11-18T17:31:38.659Z,98072.31
2023-11-18T17:36:31.324Z,98056.84
2023-11-18T17:41:23.119Z,98064.72
2023-11-18T17:46:15.322Z,98069.03
2023-11-18T17:51:07.204Z,98070.66
2023-11-18T17:55:59.944Z,98068.22
2023-11-18T18:00:51.799Z,98083.69
2023-11-18T18:05:44.103Z,98058.97
2023-11-18T18:10:35.780Z,98070.91
2023-11-18T18:15:27.835Z,98054.06
2023-11-18T18:20:21.443Z,98066.25
2023-11-18T18:25:13.647Z,98058.09
2023-11-18T18:30:06.988Z,98066.25
2023-11-18T18:34:59.249Z,98059.19
2023-11-18T18:39:53.832Z,98037.72
2023-11-18T18:44:45.667Z,98051.56
2023-11-18T18:49:37.699Z,98042.88
2023-11-18T18:54:29.677Z,98059.41
2023-11-18T18:59:21.324Z,98045.00
2023-11-18T19:04:13.131Z,98035.50
2023-11-18T19:09:05.476Z,98032.81
2023-11-18T19:13:57.291Z,98042.56
2023-11-18T19:18:48.962Z,98048.53
2023-11-18T19:23:41.304Z,98057.75
2023-11-18T19:28:33.081Z,98047.72
2023-11-18T19:33:24.862Z,98055.84
2023-11-18T19:38:16.610Z,98034.41
2023-11-18T19:43:08.352Z,98029.78
2023-11-18T19:48:00.062Z,98041.69
2023-11-18T19:52:51.743Z,98036.53
2023-11-18T19:57:43.449Z,98018.91
2023-11-18T20:02:35.950Z,98018.06
2023-11-18T20:07:28.400Z,98003.94
2023-11-18T20:12:20.075Z,98003.16
2023-11-18T20:17:11.929Z,98005.28
2023-11-18T20:22:04.213Z,98010.97
2023-11-18T20:26:55.901Z,98011.50
2023-11-18T20:31:47.603Z,98004.19
2023-11-18T20:36:39.488Z,98012.59
2023-11-18T20:41:31.593Z,97991.16
2023-11-18T20:46:23.281Z,97977.84
2023-11-18T20:51:15.619Z,97990.84
2023-11-18T20:56:08.051Z,97981.59
2023-11-18T21:00:59.984Z,97974.81
2023-11-18T21:05:51.813Z,97980.44
2023-11-18T21:10:44.479Z,97980.69
2023-11-18T21:15:37.818Z,98001.00
2023-11-18T21:20:29.598Z,97996.13
2023-11-18T21:25:21.327Z,97993.38
2023-11-18T21:30:13.195Z,97999.63
2023-11-18T21:35:05.161Z,97991.47
2023-11-18T21:39:56.969Z,97986.88
2023-11-18T21:44:48.627Z,98014.00
2023-11-18T21:49:40.260Z,97995.03
2023-11-18T21:54:34.440Z,97974.41
2023-11-18T21:59:27.519Z,97990.94
2023-11-18T22:04:19.491Z,97988.22
2023-11-18T22:09:11.337Z,97986.84
2023-11-18T22:14:04.359Z,97979.53
2023-11-18T22:18:56.092Z,97987.41
2023-11-18T22:23:47.786Z,97971.13
2023-11-18T22:28:40.481Z,97974.13
2023-11-18T22:33:32.162Z,97975.50
2023-11-18T22:38:24.196Z,97969.00
2023-11-18T22:43:15.920Z,97967.63
2023-11-18T22:48:07.922Z,97970.34
2023-11-18T22:52:59.691Z,97976.31
2023-11-18T22:57:51.385Z,97973.84
2023-11-18T23:02:43.414Z,97971.41
2023-11-18T23:07:35.264Z,97975.97
2023-11-18T23:12:27.752Z,97975.69
2023-11-18T23:17:22.515Z,97972.13
2023-11-18T23:22:14.833Z,97965.38
2023-11-18T23:27:08.215Z,97966.97
2023-11-18T23:32:00.450Z,97974.31
2023-11-18T23:36:52.342Z,97964.25
2023-11-18T23:41:44.383Z,97966.44
2023-11-18T23:46:36.188Z,97966.69
2023-11-18T23:51:29.364Z,97973.75
2023-11-18T23:56:21.006Z,97960.47
